createdAt,value
2018-08-11T00:00:34.487Z,101037.00
2018-08-11T00:03:03.744Z,101037.00
2018-08-11T00:05:32.895Z,101029.00
2018-08-11T00:08:02.045Z,101031.00
2018-08-11T00:10:31.159Z,101017.00
2018-08-11T00:13:00.281Z,101012.00
2018-08-11T00:15:29.447Z,101013.00
2018-08-11T00:17:58.650Z,101009.00
2018-08-11T00:20:29.389Z,101009.00
2018-08-11T00:22:58.563Z,101014.00
2018-08-11T00:25:27.711Z,101006.00
2018-08-11T00:27:56.879Z,101008.00
2018-08-11T00:30:26.023Z,101002.00
2018-08-11T00:32:55.254Z,100997.00
2018-08-11T00:35:24.421Z,100994.00
2018-08-11T00:37:53.531Z,100991.00
2018-08-11T00:40:22.755Z,100985.00
2018-08-11T00:42:51.876Z,100985.00
2018-08-11T00:45:21.544Z,100980.00
2018-08-11T00:47:50.653Z,100977.00
2018-08-11T00:50:24.549Z,100986.00
2018-08-11T00:52:54.022Z,100973.00
2018-08-11T00:55:23.147Z,100979.00
2018-08-11T00:57:52.257Z,100961.00
2018-08-11T01:00:25.293Z,100968.00
2018-08-11T01:02:54.421Z,100973.00
2018-08-11T01:05:23.596Z,100967.00
2018-08-11T01:07:52.727Z,100963.00
2018-08-11T01:10:21.875Z,100961.00
2018-08-11T01:12:51.041Z,100957.00
2018-08-11T01:15:21.620Z,100962.00
2018-08-11T01:17:51.439Z,100956.00
2018-08-11T01:20:20.692Z,100954.00
2018-08-11T01:22:50.430Z,100954.00
2018-08-11T01:25:19.652Z,100946.00
2018-08-11T01:27:49.053Z,100944.00
2018-08-11T01:30:21.562Z,100942.00
2018-08-11T01:32:51.248Z,100943.00
2018-08-11T01:35:20.383Z,100940.00
2018-08-11T01:37:49.531Z,100940.00
2018-08-11T01:40:18.729Z,100933.00
2018-08-11T01:42:51.928Z,100936.00
2018-08-11T01:45:21.058Z,100931.00
2018-08-11T01:47:50.183Z,100926.00
2018-08-11T01:50:19.336Z,100931.00
2018-08-11T01:52:48.504Z,100927.00
2018-08-11T01:55:18.952Z,100926.00
2018-08-11T01:57:48.170Z,100924.00
2018-08-11T02:00:18.200Z,100922.00
2018-08-11T02:02:47.352Z,100915.00
2018-08-11T02:05:16.530Z,100913.00
2018-08-11T02:07:45.939Z,100911.00
2018-08-11T02:10:19.169Z,100908.00
2018-08-11T02:12:48.676Z,100915.00
2018-08-11T02:15:17.861Z,100907.00
2018-08-11T02:17:46.991Z,100910.00
2018-08-11T02:20:19.306Z,100914.00
2018-08-11T02:22:49.482Z,100911.00
2018-08-11T02:25:18.609Z,100916.00
2018-08-11T02:27:47.746Z,100930.00
2018-08-11T02:30:18.246Z,100930.00
2018-08-11T02:32:47.419Z,100932.00
2018-08-11T02:35:16.656Z,100933.00
2018-08-11T02:37:45.814Z,100935.00
2018-08-11T02:40:16.344Z,100939.00
2018-08-11T02:42:45.493Z,100946.00
2018-08-11T02:45:16.379Z,100945.00
2018-08-11T02:47:45.949Z,100946.00
2018-08-11T02:50:15.093Z,100940.00
2018-08-11T02:52:44.495Z,100951.00
2018-08-11T02:55:13.652Z,100943.00
2018-08-11T02:57:42.753Z,100939.00
2018-08-11T03:00:12.786Z,100945.00
2018-08-11T03:02:41.964Z,100936.00
2018-08-11T03:05:11.107Z,100934.00
2018-08-11T03:07:40.228Z,100915.00
2018-08-11T03:10:11.111Z,100927.00
2018-08-11T03:12:40.799Z,100923.00
2018-08-11T03:15:11.805Z,100924.00
2018-08-11T03:17:41.817Z,100920.00
2018-08-11T03:20:13.125Z,100922.00
2018-08-11T03:22:42.358Z,100913.00
2018-08-11T03:25:11.740Z,100920.00
2018-08-11T03:27:41.073Z,100917.00
2018-08-11T03:30:10.224Z,100914.00
2018-08-11T03:32:39.525Z,100914.00
2018-08-11T03:35:08.650Z,100918.00
2018-08-11T03:37:37.773Z,100919.00
2018-08-11T03:40:09.040Z,100918.00
2018-08-11T03:42:38.255Z,100917.00
2018-08-11T03:45:07.497Z,100920.00
2018-08-11T03:47:36.593Z,100917.00
2018-08-11T03:50:07.106Z,100923.00
2018-08-11T03:52:36.283Z,100933.00
2018-08-11T03:55:05.453Z,100925.00
2018-08-11T03:57:34.584Z,100927.00
2018-08-11T04:00:04.880Z,100942.00
2018-08-11T04:02:34.013Z,100946.00
2018-08-11T04:05:03.223Z,100958.00
2018-08-11T04:07:32.452Z,100951.00
2018-08-11T04:10:02.200Z,100952.00
2018-08-11T04:12:31.499Z,100931.00
2018-08-11T04:15:01.013Z,100937.00
2018-08-11T04:17:37.472Z,100942.00
2018-08-11T04:20:07.353Z,100938.00
2018-08-11T04:22:36.770Z,100950.00
2018-08-11T04:25:06.987Z,100951.00
2018-08-11T04:27:36.593Z,100965.00
2018-08-11T04:30:08.274Z,100969.00
2018-08-11T04:32:38.397Z,100983.00
2018-08-11T04:35:07.738Z,100974.00
2018-08-11T04:37:36.869Z,100972.00
2018-08-11T04:40:06.129Z,100975.00
2018-08-11T04:42:35.241Z,100977.00
2018-08-11T04:45:04.857Z,100960.00
2018-08-11T04:47:33.960Z,100955.00
2018-08-11T04:50:03.223Z,100961.00
2018-08-11T04:52:32.365Z,100964.00
2018-08-11T04:55:01.484Z,100977.00
2018-08-11T04:57:30.615Z,100980.00
2018-08-11T04:59:59.800Z,100994.00
2018-08-11T05:02:28.993Z,100985.00
2018-08-11T05:04:58.194Z,100985.00
2018-08-11T05:07:27.515Z,100991.00
2018-08-11T05:09:56.678Z,100991.00
2018-08-11T05:12:25.952Z,100993.00
2018-08-11T05:14:55.289Z,100991.00
2018-08-11T05:17:24.412Z,100995.00
2018-08-11T05:19:53.568Z,100990.00
2018-08-11T05:22:22.772Z,100994.00
2018-08-11T05:24:51.938Z,100976.00
2018-08-11T05:27:21.155Z,100976.00
2018-08-11T05:29:50.316Z,100985.00
2018-08-11T05:32:19.464Z,100986.00
2018-08-11T05:34:48.581Z,100986.00
2018-08-11T05:37:17.783Z,100986.00
2018-08-11T05:39:46.915Z,100985.00
2018-08-11T05:42:16.083Z,100982.00
2018-08-11T05:44:45.480Z,100985.00
2018-08-11T05:47:14.616Z,100985.00
2018-08-11T05:49:43.817Z,100989.00
2018-08-11T05:52:12.957Z,100986.00
2018-08-11T05:54:42.164Z,100982.00
2018-08-11T05:57:11.280Z,100989.00
2018-08-11T05:59:40.416Z,100998.00
2018-08-11T06:02:09.974Z,100991.00
2018-08-11T06:04:39.125Z,100995.00
2018-08-11T06:07:08.356Z,100991.00
2018-08-11T06:09:37.616Z,100996.00
2018-08-11T06:12:06.928Z,100992.00
2018-08-11T06:14:36.744Z,100998.00
2018-08-11T06:17:06.017Z,101004.00
2018-08-11T06:19:35.542Z,101004.00
2018-08-11T06:22:04.705Z,100993.00
2018-08-11T06:24:33.928Z,100994.00
2018-08-11T06:27:03.091Z,100988.00
2018-08-11T06:29:32.247Z,100993.00
2018-08-11T06:32:01.373Z,100988.00
2018-08-11T06:34:30.460Z,100994.00
2018-08-11T06:36:59.592Z,100990.00
2018-08-11T06:39:28.763Z,100985.00
2018-08-11T06:41:57.892Z,100985.00
2018-08-11T06:44:27.760Z,100987.00
2018-08-11T06:46:57.101Z,100990.00
2018-08-11T06:49:26.212Z,100991.00
2018-08-11T06:51:55.339Z,100987.00
2018-08-11T06:54:24.489Z,100984.00
2018-08-11T06:56:53.604Z,100985.00
2018-08-11T06:59:22.803Z,100984.00
2018-08-11T07:01:52.135Z,100981.00
2018-08-11T07:04:21.331Z,100983.00
2018-08-11T07:06:50.480Z,100985.00
2018-08-11T07:09:19.848Z,100980.00
2018-08-11T07:11:49.967Z,100996.00
2018-08-11T07:14:19.329Z,100996.00
2018-08-11T07:16:48.501Z,100996.00
2018-08-11T07:19:17.646Z,101001.00
2018-08-11T07:21:47.206Z,100998.00
2018-08-11T07:24:16.384Z,101000.00
2018-08-11T07:26:45.576Z,100998.00
2018-08-11T07:29:14.709Z,101003.00
2018-08-11T07:31:43.858Z,100997.00
2018-08-11T07:34:12.979Z,100999.00
2018-08-11T07:36:42.144Z,101003.00
2018-08-11T07:39:11.465Z,100997.00
2018-08-11T07:41:40.698Z,100997.00
2018-08-11T07:44:09.856Z,100990.00
2018-08-11T07:46:39.022Z,100988.00
2018-08-11T07:49:08.802Z,100987.00
2018-08-11T07:51:37.987Z,101003.00
2018-08-11T07:54:07.253Z,100999.00
2018-08-11T07:56:36.348Z,100989.00
2018-08-11T07:59:05.488Z,100990.00
2018-08-11T08:01:34.618Z,100995.00
2018-08-11T08:04:03.779Z,100988.00
2018-08-11T08:06:33.014Z,100992.00
2018-08-11T08:09:02.773Z,100991.00
2018-08-11T08:11:31.975Z,100993.00
2018-08-11T08:14:01.331Z,100995.00
2018-08-11T08:16:30.662Z,100995.00
2018-08-11T08:18:59.908Z,100989.00
2018-08-11T08:21:29.492Z,100994.00
2018-08-11T08:23:58.856Z,100991.00
2018-08-11T08:26:28.455Z,100993.00
2018-08-11T08:28:57.766Z,101001.00
2018-08-11T08:31:27.090Z,100995.00
2018-08-11T08:33:56.380Z,101002.00
2018-08-11T08:36:25.631Z,101003.00
2018-08-11T08:38:54.823Z,100987.00
2018-08-11T08:41:23.977Z,100992.00
2018-08-11T08:43:53.215Z,100999.00
2018-08-11T08:46:22.423Z,100988.00
2018-08-11T08:48:51.677Z,100985.00
2018-08-11T08:51:20.867Z,100993.00
2018-08-11T08:53:49.996Z,100979.00
2018-08-11T08:56:19.147Z,100981.00
2018-08-11T08:58:48.264Z,100978.00
2018-08-11T09:01:17.435Z,100977.00
2018-08-11T09:03:46.611Z,100972.00
2018-08-11T09:06:15.794Z,100974.00
2018-08-11T09:08:44.989Z,100974.00
2018-08-11T09:11:14.293Z,100974.00
2018-08-11T09:13:43.527Z,100967.00
2018-08-11T09:16:12.853Z,100966.00
2018-08-11T09:18:42.074Z,100961.00
2018-08-11T09:21:11.421Z,100979.00
2018-08-11T09:23:40.824Z,100967.00
2018-08-11T09:26:10.197Z,100966.00
2018-08-11T09:28:39.580Z,100969.00
2018-08-11T09:31:09.665Z,100969.00
2018-08-11T09:33:38.898Z,100963.00
2018-08-11T09:36:08.447Z,100964.00
2018-08-11T09:38:37.743Z,100969.00
2018-08-11T09:41:06.901Z,100961.00
2018-08-11T09:43:36.089Z,100967.00
2018-08-11T09:46:05.363Z,100961.00
2018-08-11T09:48:34.429Z,100957.00
2018-08-11T09:51:03.598Z,100971.00
2018-08-11T09:53:32.782Z,100969.00
2018-08-11T09:56:02.098Z,100967.00
2018-08-11T09:58:31.209Z,100972.00
2018-08-11T10:01:05.567Z,100991.00
2018-08-11T10:03:34.722Z,100996.00
2018-08-11T10:06:04.075Z,100997.00
2018-08-11T10:08:33.234Z,101012.00
2018-08-11T10:11:02.487Z,101018.00
2018-08-11T10:13:31.633Z,101029.00
2018-08-11T10:16:00.890Z,101020.00
2018-08-11T10:18:30.355Z,101018.00
2018-08-11T10:20:59.370Z,101022.00
2018-08-11T10:23:28.484Z,101016.00
2018-08-11T10:25:57.670Z,101011.00
2018-08-11T10:28:26.808Z,101007.00
2018-08-11T10:30:56.050Z,101010.00
2018-08-11T10:33:25.401Z,101013.00
2018-08-11T10:35:54.763Z,101014.00
2018-08-11T10:38:23.991Z,101013.00
2018-08-11T10:40:53.363Z,101014.00
2018-08-11T10:43:22.572Z,101012.00
2018-08-11T10:45:51.824Z,101024.00
2018-08-11T10:48:21.090Z,101013.00
2018-08-11T10:50:50.326Z,101016.00
2018-08-11T10:53:19.481Z,101016.00
2018-08-11T10:55:48.636Z,101010.00
2018-08-11T10:58:17.756Z,101010.00
2018-08-11T11:00:49.816Z,101016.00
2018-08-11T11:03:18.969Z,101017.00
2018-08-11T11:05:48.141Z,101010.00
2018-08-11T11:08:17.303Z,101022.00
2018-08-11T11:10:46.403Z,101015.00
2018-08-11T11:13:15.509Z,101011.00
2018-08-11T11:15:44.792Z,101008.00
2018-08-11T11:18:13.945Z,101010.00
2018-08-11T11:20:43.096Z,101006.00
2018-08-11T11:23:12.342Z,101016.00
2018-08-11T11:25:41.508Z,101002.00
2018-08-11T11:28:10.639Z,101008.00
2018-08-11T11:30:39.790Z,100992.00
2018-08-11T11:33:08.913Z,101001.00
2018-08-11T11:35:38.101Z,101006.00
2018-08-11T11:38:07.261Z,100993.00
2018-08-11T11:40:37.108Z,100996.00
2018-08-11T11:43:06.657Z,100987.00
2018-08-11T11:45:35.855Z,100985.00
2018-08-11T11:48:05.960Z,100992.00
2018-08-11T11:50:35.255Z,100994.00
2018-08-11T11:53:04.565Z,100990.00
2018-08-11T11:55:33.855Z,100985.00
2018-08-11T11:58:03.110Z,100999.00
2018-08-11T12:00:32.411Z,100985.00
2018-08-11T12:03:01.783Z,100988.00
2018-08-11T12:05:30.978Z,100986.00
2018-08-11T12:08:00.165Z,101002.00
2018-08-11T12:10:29.316Z,101001.00
2018-08-11T12:12:58.456Z,100983.00
2018-08-11T12:15:27.598Z,100978.00
2018-08-11T12:17:56.835Z,100981.00
2018-08-11T12:20:25.985Z,100970.00
2018-08-11T12:22:55.252Z,100974.00
2018-08-11T12:25:24.735Z,100955.00
2018-08-11T12:27:53.918Z,100952.00
2018-08-11T12:30:23.033Z,100980.00
2018-08-11T12:32:52.221Z,100983.00
2018-08-11T12:35:21.335Z,101002.00
2018-08-11T12:37:50.523Z,100990.00
2018-08-11T12:40:19.645Z,100992.00
2018-08-11T12:42:48.791Z,100995.00
2018-08-11T12:45:17.968Z,100993.00
2018-08-11T12:47:47.203Z,100980.00
2018-08-11T12:50:16.554Z,100982.00
2018-08-11T12:52:45.855Z,100971.00
2018-08-11T12:55:15.192Z,100989.00
2018-08-11T12:57:45.485Z,100994.00
2018-08-11T13:00:14.901Z,100996.00
2018-08-11T13:02:44.171Z,101012.00
2018-08-11T13:05:13.513Z,101031.00
2018-08-11T13:07:42.743Z,101045.00
2018-08-11T13:10:11.896Z,101051.00
2018-08-11T13:12:41.039Z,101029.00
2018-08-11T13:15:10.135Z,101033.00
2018-08-11T13:17:39.307Z,101027.00
2018-08-11T13:20:09.217Z,101040.00
2018-08-11T13:22:38.565Z,101060.00
2018-08-11T13:25:07.699Z,101063.00
2018-08-11T13:27:36.862Z,101065.00
2018-08-11T13:30:07.813Z,101038.00
2018-08-11T13:32:37.012Z,101030.00
2018-08-11T13:35:06.221Z,101023.00
2018-08-11T13:37:35.642Z,101029.00
2018-08-11T13:40:05.016Z,101030.00
2018-08-11T13:42:34.264Z,101027.00
2018-08-11T13:45:03.797Z,101034.00
2018-08-11T13:47:32.986Z,101038.00
2018-08-11T13:50:02.177Z,101047.00
2018-08-11T13:52:31.512Z,101025.00
2018-08-11T13:55:00.739Z,101040.00
2018-08-11T13:57:29.981Z,101045.00
2018-08-11T13:59:59.202Z,101038.00
2018-08-11T14:02:28.515Z,101040.00
2018-08-11T14:04:57.854Z,101041.00
2018-08-11T14:07:27.254Z,101048.00
2018-08-11T14:09:57.111Z,101049.00
2018-08-11T14:12:32.757Z,101048.00
2018-08-11T14:15:02.164Z,101038.00
2018-08-11T14:17:31.938Z,101047.00
2018-08-11T14:20:01.251Z,101041.00
2018-08-11T14:22:30.686Z,101040.00
2018-08-11T14:25:00.089Z,101043.00
2018-08-11T14:27:29.538Z,101022.00
2018-08-11T14:29:58.994Z,101040.00
2018-08-11T14:32:28.369Z,101044.00
2018-08-11T14:34:57.753Z,101035.00
2018-08-11T14:37:27.000Z,101057.00
2018-08-11T14:39:56.191Z,101069.00
2018-08-11T14:42:25.457Z,101114.00
2018-08-11T14:44:54.687Z,101109.00
2018-08-11T14:47:23.937Z,101126.00
2018-08-11T14:49:53.100Z,101127.00
2018-08-11T14:52:22.772Z,101130.00
2018-08-11T14:54:51.898Z,101101.00
2018-08-11T14:57:21.007Z,101102.00
2018-08-11T14:59:50.177Z,101089.00
2018-08-11T15:02:19.324Z,101081.00
2018-08-11T15:04:48.451Z,101083.00
2018-08-11T15:07:17.588Z,101072.00
2018-08-11T15:09:46.768Z,101072.00
2018-08-11T15:12:16.041Z,101078.00
2018-08-11T15:14:45.251Z,101081.00
2018-08-11T15:17:14.725Z,101091.00
2018-08-11T15:19:43.899Z,101093.00
2018-08-11T15:22:13.195Z,101087.00
2018-08-11T15:24:42.416Z,101084.00
2018-08-11T15:27:11.686Z,101082.00
2018-08-11T15:29:40.988Z,101087.00
2018-08-11T15:32:10.516Z,101082.00
2018-08-11T15:34:39.922Z,101096.00
2018-08-11T15:37:09.515Z,101100.00
2018-08-11T15:39:38.838Z,101104.00
2018-08-11T15:42:08.106Z,101108.00
2018-08-11T15:44:37.360Z,101112.00
2018-08-11T15:47:06.751Z,101109.00
2018-08-11T15:49:35.939Z,101107.00
2018-08-11T15:52:05.195Z,101116.00
2018-08-11T15:54:34.365Z,101119.00
2018-08-11T15:57:03.638Z,101116.00
2018-08-11T15:59:32.841Z,101112.00
2018-08-11T16:02:02.132Z,101118.00
2018-08-11T16:04:31.304Z,101115.00
2018-08-11T16:07:00.441Z,101117.00
2018-08-11T16:09:29.717Z,101120.00
2018-08-11T16:11:58.963Z,101129.00
2018-08-11T16:14:28.088Z,101118.00
2018-08-11T16:16:57.324Z,101127.00
2018-08-11T16:19:26.481Z,101127.00
2018-08-11T16:21:56.188Z,101122.00
2018-08-11T16:24:25.380Z,101128.00
2018-08-11T16:26:54.773Z,101129.00
2018-08-11T16:29:24.169Z,101123.00
2018-08-11T16:31:53.590Z,101135.00
2018-08-11T16:34:22.786Z,101130.00
2018-08-11T16:36:51.974Z,101137.00
2018-08-11T16:39:21.320Z,101136.00
2018-08-11T16:41:50.723Z,101124.00
2018-08-11T16:44:20.846Z,101126.00
2018-08-11T16:46:50.617Z,101128.00
2018-08-11T16:49:20.265Z,101127.00
2018-08-11T16:51:49.765Z,101118.00
2018-08-11T16:54:19.230Z,101126.00
2018-08-11T16:56:48.667Z,101124.00
2018-08-11T16:59:18.055Z,101136.00
2018-08-11T17:01:47.724Z,101130.00
2018-08-11T17:04:17.021Z,101136.00
2018-08-11T17:06:46.292Z,101135.00
2018-08-11T17:09:15.503Z,101137.00
2018-08-11T17:11:44.818Z,101132.00
2018-08-11T17:14:13.973Z,101133.00
2018-08-11T17:16:43.478Z,101145.00
2018-08-11T17:19:12.669Z,101140.00
2018-08-11T17:21:41.805Z,101131.00
2018-08-11T17:24:10.959Z,101129.00
2018-08-11T17:26:40.827Z,101136.00
2018-08-11T17:29:10.240Z,101144.00
2018-08-11T17:31:39.995Z,101139.00
2018-08-11T17:34:09.192Z,101150.00
2018-08-11T17:36:38.394Z,101159.00
2018-08-11T17:39:10.084Z,101144.00
2018-08-11T17:41:39.343Z,101161.00
2018-08-11T17:44:08.491Z,101148.00
2018-08-11T17:46:37.781Z,101152.00
2018-08-11T17:49:07.052Z,101156.00
2018-08-11T17:51:36.335Z,101148.00
2018-08-11T17:54:05.622Z,101148.00
2018-08-11T17:56:35.272Z,101152.00
2018-08-11T17:59:05.638Z,101147.00
2018-08-11T18:01:35.056Z,101150.00
2018-08-11T18:04:04.472Z,101157.00
2018-08-11T18:06:34.681Z,101157.00
2018-08-11T18:09:06.581Z,101162.00
2018-08-11T18:11:36.091Z,101164.00
2018-08-11T18:14:05.810Z,101171.00
2018-08-11T18:16:35.296Z,101147.00
2018-08-11T18:19:04.707Z,101175.00
2018-08-11T18:21:34.945Z,101178.00
2018-08-11T18:24:05.271Z,101183.00
2018-08-11T18:26:34.725Z,101177.00
2018-08-11T18:29:04.658Z,101182.00
2018-08-11T18:31:34.294Z,101177.00
2018-08-11T18:34:03.959Z,101184.00
2018-08-11T18:36:34.995Z,101182.00
2018-08-11T18:39:06.538Z,101179.00
2018-08-11T18:41:39.310Z,101184.00
2018-08-11T18:44:08.912Z,101180.00
2018-08-11T18:46:38.525Z,101185.00
2018-08-11T18:49:08.203Z,101188.00
2018-08-11T18:51:38.515Z,101184.00
2018-08-11T18:54:08.136Z,101188.00
2018-08-11T18:56:37.882Z,101192.00
2018-08-11T18:59:07.290Z,101194.00
2018-08-11T19:01:36.554Z,101190.00
2018-08-11T19:04:07.080Z,101203.00
2018-08-11T19:06:36.552Z,101200.00
2018-08-11T19:09:12.293Z,101206.00
2018-08-11T19:11:42.275Z,101216.00
2018-08-11T19:14:11.646Z,101210.00
2018-08-11T19:16:41.529Z,101221.00
2018-08-11T19:19:15.182Z,101217.00
2018-08-11T19:21:44.900Z,101227.00
2018-08-11T19:24:14.338Z,101219.00
2018-08-11T19:26:44.005Z,101222.00
2018-08-11T19:29:13.357Z,101226.00
2018-08-11T19:31:42.714Z,101222.00
2018-08-11T19:34:12.131Z,101215.00
2018-08-11T19:36:42.038Z,101225.00
2018-08-11T19:39:12.360Z,101221.00
2018-08-11T19:41:42.286Z,101223.00
2018-08-11T19:44:11.790Z,101230.00
2018-08-11T19:46:41.064Z,101233.00
2018-08-11T19:49:10.204Z,101224.00
2018-08-11T19:51:39.463Z,101238.00
2018-08-11T19:54:08.713Z,101234.00
2018-08-11T19:56:37.937Z,101230.00
2018-08-11T19:59:07.115Z,101235.00
2018-08-11T20:01:36.272Z,101233.00
2018-08-11T20:04:05.440Z,101230.00
2018-08-11T20:06:34.702Z,101232.00
2018-08-11T20:09:04.571Z,101226.00
2018-08-11T20:11:33.715Z,101229.00
2018-08-11T20:14:03.813Z,101222.00
2018-08-11T20:16:34.245Z,101224.00
2018-08-11T20:19:03.505Z,101220.00
2018-08-11T20:21:32.700Z,101223.00
2018-08-11T20:24:01.979Z,101218.00
2018-08-11T20:26:31.202Z,101233.00
2018-08-11T20:29:00.603Z,101225.00
2018-08-11T20:31:29.898Z,101224.00
2018-08-11T20:33:59.190Z,101224.00
2018-08-11T20:36:28.455Z,101227.00
2018-08-11T20:38:57.727Z,101216.00
2018-08-11T20:41:26.937Z,101228.00
2018-08-11T20:43:56.385Z,101226.00
2018-08-11T20:46:25.635Z,101226.00
2018-08-11T20:48:54.944Z,101225.00
2018-08-11T20:51:24.220Z,101226.00
2018-08-11T20:53:53.381Z,101233.00
2018-08-11T20:56:22.564Z,101236.00
2018-08-11T20:58:51.735Z,101232.00
2018-08-11T21:01:20.904Z,101235.00
2018-08-11T21:03:50.078Z,101236.00
2018-08-11T21:06:19.199Z,101229.00
2018-08-11T21:08:48.393Z,101231.00
2018-08-11T21:11:17.598Z,101229.00
2018-08-11T21:13:46.817Z,101230.00
2018-08-11T21:16:16.262Z,101225.00
2018-08-11T21:18:45.451Z,101212.00
2018-08-11T21:21:14.770Z,101218.00
2018-08-11T21:23:43.972Z,101221.00
2018-08-11T21:26:13.137Z,101215.00
2018-08-11T21:28:42.271Z,101213.00
2018-08-11T21:31:11.464Z,101213.00
2018-08-11T21:33:42.812Z,101208.00
2018-08-11T21:36:15.418Z,101216.00
2018-08-11T21:38:44.541Z,101209.00
2018-08-11T21:43:56.201Z,101210.00
2018-08-11T21:46:25.347Z,101205.00
2018-08-11T21:48:54.777Z,101207.00
2018-08-11T21:51:24.037Z,101204.00
2018-08-11T21:53:53.240Z,101207.00
2018-08-11T21:56:22.423Z,101215.00
2018-08-11T21:58:51.647Z,101216.00
2018-08-11T22:01:20.825Z,101212.00
2018-08-11T22:03:49.961Z,101204.00
2018-08-11T22:06:19.182Z,101208.00
2018-08-11T22:08:48.402Z,101221.00
2018-08-11T22:11:17.547Z,101209.00
2018-08-11T22:13:46.870Z,101202.00
2018-08-11T22:16:16.157Z,101207.00
2018-08-11T22:18:45.601Z,101215.00
2018-08-11T22:21:15.152Z,101219.00
2018-08-11T22:23:44.683Z,101210.00
2018-08-11T22:26:14.256Z,101204.00
2018-08-11T22:28:43.586Z,101205.00
2018-08-11T22:31:13.001Z,101208.00
2018-08-11T22:33:42.282Z,101210.00
2018-08-11T22:36:11.462Z,101198.00
2018-08-11T22:38:40.717Z,101202.00
2018-08-11T22:41:09.920Z,101205.00
2018-08-11T22:43:39.328Z,101205.00
2018-08-11T22:46:08.661Z,101196.00
2018-08-11T22:48:37.909Z,101191.00
2018-08-11T22:51:07.202Z,101189.00
2018-08-11T22:53:36.386Z,101190.00
2018-08-11T22:56:05.726Z,101189.00
2018-08-11T22:58:34.980Z,101190.00
2018-08-11T23:01:04.157Z,101188.00
2018-08-11T23:03:33.340Z,101187.00
2018-08-11T23:06:02.494Z,101191.00
2018-08-11T23:08:31.836Z,101187.00
2018-08-11T23:11:01.005Z,101181.00
2018-08-11T23:13:30.261Z,101182.00
2018-08-11T23:15:59.432Z,101174.00
2018-08-11T23:18:28.631Z,101171.00
2018-08-11T23:20:57.818Z,101166.00
2018-08-11T23:23:27.073Z,101163.00
2018-08-11T23:25:56.396Z,101163.00
2018-08-11T23:28:25.615Z,101165.00
2018-08-11T23:30:54.823Z,101156.00
2018-08-11T23:33:24.136Z,101166.00
2018-08-11T23:35:53.524Z,101159.00
2018-08-11T23:38:23.068Z,101158.00
2018-08-11T23:40:52.287Z,101145.00
2018-08-11T23:43:21.567Z,101156.00
2018-08-11T23:45:50.742Z,101152.00
2018-08-11T23:48:20.074Z,101154.00
2018-08-11T23:50:49.394Z,101156.00
2018-08-11T23:53:18.624Z,101158.00
2018-08-11T23:55:47.916Z,101153.00
2018-08-11T23:58:17.091Z,101156.00
